Rushville, IL

9:08 AM CDT on July 14, 2014 (GMT -0500)
Quincy Regional-Baldwin (KUIN) Elev 768 ft | 39.94 °N, 91.19 °W | Change Station
Active Advisory: Flood Warning

Current weather conditions updated 14 minutes ago

Clear
Clear
78 °F
Feels Like 78 °F
N
7
Wind Variable Wind from WSW

Today is forecast to be Cooler than yesterday. Morning thunderstorms.

Today
High -- | Low -- °F
--% Chance of Precip.
Yesterday
High -- | Low -- °F
Precip. -- in
5:44 AM 8:30 PM
Waning Gibbous, 93% visible
Pressure 29.90 in
Visibility 10.0 miles
Clouds Clear
Dew Point 70 °F
Humidity 76%
Rainfall 0.00 in
Snow Depth Not available.
UV 4 out of 12
Pollen 2.00 out of 12
Air Quality Not available.
Flu Activity Sporadic
METAR KUIN 141354Z AUTO 25006KT 10SM CLR 26/21 A2992 RMK AO2 SLP124 T02560211

More Conditions Fewer Conditions

Pressure 29.90 in
Visibility 10.0 miles
Clouds Clear
Dew Point 70 °F
Humidity 76%
Rainfall 0.00 in
Snow Depth Not available.
UV 4 out of 12
Pollen 2.00 out of 12
Air Quality Not available.
Flu Activity Sporadic
METAR KUIN 141354Z AUTO 25006KT 10SM CLR 26/21 A2992 RMK AO2 SLP124 T02560211

More Conditions Fewer Conditions

10-Day Weather Forecast

Almanac

Astronomy

Jul. 14, 2014 Rise Set
Actual Time 5:44 AM CDT 8:30 PM CDT
Civil Twilight 5:12 AM CDT 9:02 PM CDT
Nautical Twilight 4:32 AM CDT 9:42 PM CDT
Astronomical Twilight 3:46 AM CDT 10:28 PM CDT
Moon 10:00 PM CDT 8:27 AM CDT
Length of Visible Light 15h 49m
Length of Day
14h 45m
Tomorrow will be 1m 20s shorter.
Waning Gibbous, 93% of the Moon is Illuminated
Today
Waning Gibbous
Jul 18
Last Quarter
Jul 26
New
Aug 3
First Quarter
Aug 10
Full

Today's Extremes

State Highs State Lows

Community

WunderPhotos

Upload Photos

1,733,661 photos uploaded!

Nearby

Snow Depth

Station Depth Elevation
No new snow has been reported.

Earthquake Activity

City Distance Mag. Time & Date
No recent earthquake activity has been reported nearby.
Minimum magnitude displayed is 2.5.

Coastal Water Temperatures

Place Temperature
No Stations Reporting

Nearby Weather Stations

Station Location Temp. Heat Index Dew Point Humidity Wind Precip. Elev Updated Type
Rushville (Inner City), Rushville, IL 79.9 °F 84 °F 74 °F 81% South  at  1.1 mph 0.00 in / hr 666 ft 9:08 AM CDT Rapid Fire
Rushville, Rushville, IL 78.3 °F 81 °F 72 °F 81% NW  at  0.0 mph 0.00 in / hr 607 ft 9:08 AM CDT Rapid Fire
Astoria, Astoria, IL 77.7 °F 80 °F 71 °F 79% WSW  at  3.0 mph 0.00 in / hr 712 ft 8:56 AM CDT Normal
Elkhorn, Mount Sterling, IL 80.6 °F 82 °F 64 °F 56% South  at  2.2 mph 0.00 in / hr 689 ft 9:08 AM CDT Rapid Fire
ARS W9PFD, Adair, IL 77.2 °F 79 °F 72 °F 84% WNW  at  6.0 mph 0.00 in / hr 650 ft 9:05 AM CDT Normal
MesoWest IL-61 South of Colmar , Plymouth, IL 69 °F - 67 °F 92% North  at  0 mph 0.00 in / hr 541 ft 6:45 AM CDT MADIS

Show More Stations Show Fewer Stations